createdAt,value
2018-01-27T00:01:13.557Z,27.50
2018-01-27T00:03:46.132Z,28.70
2018-01-27T00:06:13.642Z,28.37
2018-01-27T00:08:41.129Z,26.97
2018-01-27T00:11:08.591Z,27.47
2018-01-27T00:13:36.140Z,27.77
2018-01-27T00:16:03.625Z,27.50
2018-01-27T00:18:31.137Z,26.43
2018-01-27T00:20:58.635Z,26.97
2018-01-27T00:23:26.087Z,28.17
2018-01-27T00:25:53.560Z,26.87
2018-01-27T00:28:21.066Z,26.70
2018-01-27T00:30:49.866Z,26.40
2018-01-27T00:33:19.658Z,27.47
2018-01-27T00:35:47.144Z,25.37
2018-01-27T00:38:15.221Z,26.77
2018-01-27T00:40:44.467Z,27.30
2018-01-27T00:43:12.915Z,27.63
2018-01-27T00:45:41.410Z,26.87
2018-01-27T00:48:08.910Z,27.33
2018-01-27T00:50:36.398Z,27.37
2018-01-27T00:53:04.809Z,27.63
2018-01-27T00:55:32.315Z,27.80
2018-01-27T00:57:59.805Z,28.80
2018-01-27T01:00:27.315Z,28.17
2018-01-27T01:02:54.779Z,28.40
2018-01-27T01:05:23.103Z,28.23
2018-01-27T01:07:50.589Z,27.33
2018-01-27T01:10:18.067Z,28.47
2018-01-27T01:12:45.542Z,27.53
2018-01-27T01:15:13.312Z,27.67
2018-01-27T01:17:41.408Z,27.37
2018-01-27T01:20:08.930Z,27.93
2018-01-27T01:22:36.405Z,26.77
2018-01-27T01:25:03.943Z,27.57
2018-01-27T01:27:31.470Z,27.57
2018-01-27T01:29:59.014Z,27.93
2018-01-27T01:32:26.474Z,27.73
2018-01-27T01:34:53.964Z,27.87
2018-01-27T01:37:21.463Z,27.20
2018-01-27T01:39:48.922Z,27.90
2018-01-27T01:42:23.327Z,26.00
2018-01-27T01:44:51.552Z,27.30
2018-01-27T01:47:19.140Z,27.37
2018-01-27T01:49:51.568Z,26.90
2018-01-27T01:52:20.552Z,26.17
2018-01-27T01:54:48.026Z,27.43
2018-01-27T01:57:16.508Z,25.23
2018-01-27T01:59:44.033Z,26.43
2018-01-27T02:02:11.516Z,26.33
2018-01-27T02:04:39.021Z,26.07
2018-01-27T02:07:06.646Z,27.20
2018-01-27T02:09:34.111Z,25.47
2018-01-27T02:12:01.546Z,26.90
2018-01-27T02:14:29.004Z,26.50
2018-01-27T02:16:56.539Z,27.13
2018-01-27T02:19:24.054Z,26.33
2018-01-27T02:21:52.013Z,25.47
2018-01-27T02:24:19.526Z,25.87
2018-01-27T02:26:47.006Z,27.27
2018-01-27T02:29:14.467Z,24.67
2018-01-27T02:31:41.957Z,25.80
2018-01-27T02:34:14.442Z,26.37
2018-01-27T02:36:41.927Z,25.60
2018-01-27T02:39:09.383Z,26.33
2018-01-27T02:41:36.901Z,26.33
2018-01-27T02:44:04.406Z,25.93
2018-01-27T02:46:31.861Z,26.50
2018-01-27T02:48:59.374Z,26.90
2018-01-27T02:51:26.912Z,24.83
2018-01-27T02:53:54.417Z,25.83
2018-01-27T02:56:21.891Z,25.53
2018-01-27T02:58:49.353Z,27.37
2018-01-27T03:01:16.905Z,27.47
2018-01-27T03:03:44.486Z,27.00
2018-01-27T03:06:12.003Z,26.43
2018-01-27T03:08:39.880Z,26.23
2018-01-27T03:11:07.353Z,25.80
2018-01-27T03:13:34.805Z,26.00
2018-01-27T03:16:02.752Z,27.70
2018-01-27T03:18:30.210Z,27.70
2018-01-27T03:20:57.667Z,27.37
2018-01-27T03:23:28.018Z,26.37
2018-01-27T03:25:55.645Z,27.50
2018-01-27T03:28:23.477Z,26.53
2018-01-27T03:30:51.152Z,26.30
2018-01-27T03:33:18.641Z,26.10
2018-01-27T03:35:46.186Z,26.07
2018-01-27T03:38:13.669Z,28.57
2018-01-27T03:40:41.175Z,28.30
2018-01-27T03:43:22.964Z,27.63
2018-01-27T03:45:50.811Z,28.23
2018-01-27T03:48:20.029Z,27.63
2018-01-27T03:50:47.502Z,28.10
2018-01-27T03:53:14.990Z,28.23
2018-01-27T03:55:42.441Z,26.30
2018-01-27T03:58:10.948Z,28.07
2018-01-27T04:00:38.455Z,28.57
2018-01-27T04:03:11.171Z,26.03
2018-01-27T04:05:38.724Z,27.57
2018-01-27T04:08:06.202Z,26.67
2018-01-27T04:10:33.665Z,27.70
2018-01-27T04:13:01.161Z,27.67
2018-01-27T04:15:28.647Z,28.17
2018-01-27T04:17:56.119Z,27.83
2018-01-27T04:20:23.570Z,28.17
2018-01-27T04:22:51.053Z,26.70
2018-01-27T04:25:18.547Z,25.50
2018-01-27T04:27:46.044Z,28.70
2018-01-27T04:30:13.495Z,27.40
2018-01-27T04:32:40.968Z,27.47
2018-01-27T04:35:08.523Z,27.77
2018-01-27T04:37:35.994Z,28.47
2018-01-27T04:40:03.539Z,26.97
2018-01-27T04:42:31.108Z,27.80
2018-01-27T04:44:59.599Z,28.53
2018-01-27T04:47:27.092Z,28.70
2018-01-27T04:49:54.560Z,29.40
2018-01-27T04:52:22.968Z,29.70
2018-01-27T04:54:50.438Z,28.07
2018-01-27T04:57:18.142Z,29.47
2018-01-27T04:59:46.533Z,30.10
2018-01-27T05:02:14.055Z,28.20
2018-01-27T05:04:46.471Z,28.07
2018-01-27T05:07:13.955Z,26.77
2018-01-27T05:09:41.446Z,28.63
2018-01-27T05:12:08.900Z,27.30
2018-01-27T05:14:36.374Z,29.20
2018-01-27T05:17:03.838Z,29.37
2018-01-27T05:19:31.353Z,29.37
2018-01-27T05:21:58.850Z,28.20
2018-01-27T05:24:26.363Z,30.80
2018-01-27T05:26:53.847Z,30.17
2018-01-27T05:29:21.337Z,30.77
2018-01-27T05:31:49.863Z,30.17
2018-01-27T05:34:18.115Z,30.60
2018-01-27T05:36:45.622Z,29.37
2018-01-27T05:39:13.074Z,30.50
2018-01-27T05:41:40.573Z,30.90
2018-01-27T05:44:08.172Z,29.50
2018-01-27T05:46:35.638Z,32.43
2018-01-27T05:49:03.109Z,30.40
2018-01-27T05:51:30.638Z,30.13
2018-01-27T05:53:58.119Z,30.97
2018-01-27T05:56:25.611Z,31.20
2018-01-27T05:58:53.117Z,30.90
2018-01-27T06:01:20.566Z,32.10
2018-01-27T06:03:48.032Z,30.53
2018-01-27T06:06:15.518Z,30.70
2018-01-27T06:08:42.991Z,29.87
2018-01-27T06:11:11.240Z,32.40
2018-01-27T06:13:40.222Z,31.77
2018-01-27T06:16:08.652Z,30.23
2018-01-27T06:18:38.871Z,30.27
2018-01-27T06:21:06.715Z,30.17
2018-01-27T06:23:34.213Z,31.50
2018-01-27T06:26:01.695Z,30.03
2018-01-27T06:28:30.004Z,29.63
2018-01-27T06:30:58.370Z,29.27
2018-01-27T06:33:25.877Z,30.07
2018-01-27T06:35:53.364Z,32.33
2018-01-27T06:38:20.850Z,30.73
2018-01-27T06:40:48.424Z,30.93
2018-01-27T06:43:15.880Z,28.90
2018-01-27T06:45:43.434Z,29.10
2018-01-27T06:48:10.913Z,30.13
2018-01-27T06:50:38.452Z,30.07
2018-01-27T06:53:05.968Z,30.63
2018-01-27T06:55:33.444Z,28.80
2018-01-27T06:58:00.935Z,29.13
2018-01-27T07:00:28.408Z,28.03
2018-01-27T07:02:56.010Z,31.47
2018-01-27T07:05:23.490Z,29.27
2018-01-27T07:07:51.034Z,27.80
2018-01-27T07:10:18.642Z,29.50
2018-01-27T07:12:46.143Z,28.47
2018-01-27T07:15:13.709Z,28.87
2018-01-27T07:17:42.152Z,29.33
2018-01-27T07:20:09.650Z,26.73
2018-01-27T07:22:38.124Z,26.93
2018-01-27T07:25:05.640Z,26.60
2018-01-27T07:27:33.139Z,27.77
2018-01-27T07:30:00.698Z,26.37
2018-01-27T07:32:28.163Z,27.60
2018-01-27T07:34:55.746Z,27.13
2018-01-27T07:37:23.229Z,26.73
2018-01-27T07:39:50.732Z,28.97
2018-01-27T07:42:18.599Z,25.40
2018-01-27T07:44:47.111Z,27.30
2018-01-27T07:47:14.639Z,27.07
2018-01-27T07:49:42.707Z,25.87
2018-01-27T07:52:10.347Z,28.23
2018-01-27T07:54:37.824Z,26.83
2018-01-27T07:57:05.305Z,27.53
2018-01-27T07:59:32.826Z,27.47
2018-01-27T08:02:00.412Z,27.33
2018-01-27T08:04:27.963Z,26.03
2018-01-27T08:06:55.456Z,27.23
2018-01-27T08:09:23.909Z,26.90
2018-01-27T08:11:51.397Z,26.10
2018-01-27T08:14:18.871Z,27.93
2018-01-27T08:16:47.533Z,26.60
2018-01-27T08:19:16.002Z,25.73
2018-01-27T08:21:45.082Z,28.33
2018-01-27T08:24:12.718Z,27.60
2018-01-27T08:26:40.324Z,26.90
2018-01-27T08:29:07.835Z,26.03
2018-01-27T08:31:37.206Z,26.20
2018-01-27T08:34:05.550Z,25.43
2018-01-27T08:36:33.118Z,25.90
2018-01-27T08:39:00.658Z,24.43
2018-01-27T08:41:28.315Z,25.63
2018-01-27T08:43:55.826Z,24.53
2018-01-27T08:46:23.350Z,25.00
2018-01-27T08:48:51.287Z,27.30
2018-01-27T08:51:18.792Z,26.37
2018-01-27T08:53:46.300Z,27.40
2018-01-27T08:56:13.787Z,27.47
2018-01-27T08:58:41.322Z,27.13
2018-01-27T09:01:08.917Z,26.07
2018-01-27T09:03:36.417Z,27.83
2018-01-27T09:06:03.980Z,29.20
2018-01-27T09:08:31.495Z,28.33
2018-01-27T09:10:59.132Z,29.40
2018-01-27T09:13:26.721Z,28.53
2018-01-27T09:15:54.201Z,28.67
2018-01-27T09:18:21.873Z,30.03
2018-01-27T09:20:49.504Z,31.37
2018-01-27T09:23:17.077Z,28.33
2018-01-27T09:25:44.557Z,30.73
2018-01-27T09:28:12.194Z,29.53
2018-01-27T09:30:39.665Z,29.33
2018-01-27T09:33:07.191Z,30.20
2018-01-27T09:35:34.852Z,28.23
2018-01-27T09:38:02.317Z,29.60
2018-01-27T09:40:29.849Z,28.93
2018-01-27T09:42:57.421Z,29.43
2018-01-27T09:45:24.951Z,30.27
2018-01-27T09:47:52.550Z,28.67
2018-01-27T09:50:20.129Z,30.20
2018-01-27T09:52:48.687Z,30.27
2018-01-27T09:55:16.207Z,30.03
2018-01-27T09:57:43.695Z,31.80
2018-01-27T10:00:11.267Z,30.13
2018-01-27T10:02:38.978Z,31.17
2018-01-27T10:05:06.486Z,28.27
2018-01-27T10:07:33.957Z,30.03
2018-01-27T10:10:01.563Z,30.37
2018-01-27T10:12:31.556Z,31.07
2018-01-27T10:14:59.105Z,29.60
2018-01-27T10:17:26.623Z,32.00
2018-01-27T10:19:54.102Z,31.10
2018-01-27T10:22:21.579Z,29.70
2018-01-27T10:24:49.063Z,30.13
2018-01-27T10:27:16.579Z,31.37
2018-01-27T10:29:44.052Z,30.70
2018-01-27T10:32:11.739Z,31.43
2018-01-27T10:34:39.238Z,30.07
2018-01-27T10:37:06.862Z,30.63
2018-01-27T10:39:34.386Z,30.70
2018-01-27T10:42:01.944Z,29.77
2018-01-27T10:44:29.605Z,29.53
2018-01-27T10:46:57.153Z,29.87
2018-01-27T10:49:24.642Z,30.00
2018-01-27T10:51:52.455Z,30.50
2018-01-27T10:54:20.483Z,32.83
2018-01-27T10:56:47.986Z,32.03
2018-01-27T10:59:15.477Z,30.83
2018-01-27T11:01:43.023Z,30.10
2018-01-27T11:04:10.521Z,29.17
2018-01-27T11:06:38.048Z,29.23
2018-01-27T11:09:05.757Z,29.67
2018-01-27T11:11:33.308Z,28.27
2018-01-27T11:14:00.845Z,30.23
2018-01-27T11:16:30.917Z,29.00
2018-01-27T11:21:40.101Z,29.47
2018-01-27T11:24:07.657Z,31.30
2018-01-27T11:26:35.120Z,29.20
2018-01-27T11:29:02.609Z,31.10
2018-01-27T11:31:30.113Z,30.37
2018-01-27T11:33:57.918Z,29.70
2018-01-27T11:36:25.487Z,30.23
2018-01-27T11:38:53.003Z,30.30
2018-01-27T11:41:20.555Z,30.27
2018-01-27T11:43:48.296Z,31.17
2018-01-27T11:46:15.790Z,31.53
2018-01-27T11:48:43.258Z,31.27
2018-01-27T11:51:10.891Z,29.80
2018-01-27T11:53:38.400Z,29.63
2018-01-27T11:56:06.106Z,30.63
2018-01-27T11:58:33.803Z,30.97
2018-01-27T12:01:01.262Z,30.97
2018-01-27T12:03:28.927Z,31.27
2018-01-27T12:05:56.421Z,31.33
2018-01-27T12:08:23.983Z,29.77
2018-01-27T12:10:51.472Z,31.00
2018-01-27T12:13:18.991Z,30.90
2018-01-27T12:15:46.520Z,31.07
2018-01-27T12:18:14.198Z,30.77
2018-01-27T12:20:41.713Z,28.70
2018-01-27T12:23:09.397Z,29.27
2018-01-27T12:25:37.719Z,28.20
2018-01-27T12:28:05.273Z,29.43
2018-01-27T12:30:33.218Z,29.37
2018-01-27T12:33:00.718Z,27.80
2018-01-27T12:35:28.192Z,27.37
2018-01-27T12:37:55.689Z,28.13
2018-01-27T12:40:23.179Z,28.17
2018-01-27T12:42:50.706Z,27.37
2018-01-27T12:45:18.225Z,25.83
2018-01-27T12:47:45.984Z,26.83
2018-01-27T12:50:13.569Z,26.10
2018-01-27T12:52:41.081Z,27.40
2018-01-27T12:55:08.622Z,26.77
2018-01-27T12:57:36.172Z,27.63
2018-01-27T13:00:03.852Z,26.37
2018-01-27T13:02:31.356Z,25.40
2018-01-27T13:04:58.924Z,24.60
2018-01-27T13:07:26.408Z,25.20
2018-01-27T13:09:54.041Z,26.43
2018-01-27T13:12:21.589Z,25.40
2018-01-27T13:14:49.308Z,26.30
2018-01-27T13:17:16.776Z,28.20
2018-01-27T13:19:44.225Z,26.70
2018-01-27T13:22:12.016Z,26.87
2018-01-27T13:24:40.317Z,27.57
2018-01-27T13:27:07.790Z,27.80
2018-01-27T13:29:35.313Z,26.97
2018-01-27T13:32:02.880Z,26.73
2018-01-27T13:34:30.399Z,27.00
2018-01-27T13:36:57.968Z,25.60
2018-01-27T13:39:25.563Z,27.37
2018-01-27T13:41:53.322Z,28.13
2018-01-27T13:44:20.945Z,28.77
2018-01-27T13:46:48.458Z,29.63
2018-01-27T13:49:16.078Z,27.63
2018-01-27T13:51:43.732Z,28.73
2018-01-27T13:54:11.183Z,27.90
2018-01-27T13:56:38.695Z,30.53
2018-01-27T13:59:06.450Z,27.67
2018-01-27T14:01:34.273Z,27.07
2018-01-27T14:04:01.873Z,27.57
2018-01-27T14:06:30.795Z,28.13
2018-01-27T14:08:58.386Z,29.10
2018-01-27T14:11:26.666Z,28.83
2018-01-27T14:13:54.202Z,27.67
2018-01-27T14:16:21.751Z,28.03
2018-01-27T14:18:49.232Z,25.47
2018-01-27T14:21:16.941Z,25.20
2018-01-27T14:23:44.573Z,26.53
2018-01-27T14:26:12.119Z,26.43
2018-01-27T14:28:39.723Z,25.20
2018-01-27T14:31:07.274Z,26.63
2018-01-27T14:33:44.402Z,26.47
2018-01-27T14:36:11.931Z,27.37
2018-01-27T14:38:39.471Z,25.20
2018-01-27T14:41:06.958Z,25.37
2018-01-27T14:43:34.630Z,25.23
2018-01-27T14:46:02.327Z,24.87
2018-01-27T14:48:29.867Z,26.53
2018-01-27T14:50:57.404Z,24.60
2018-01-27T14:53:24.895Z,25.23
2018-01-27T14:55:52.421Z,25.03
2018-01-27T14:58:19.878Z,27.00
2018-01-27T15:00:47.420Z,25.90
2018-01-27T15:03:14.917Z,25.90
2018-01-27T15:05:42.473Z,25.53
2018-01-27T15:08:09.954Z,26.47
2018-01-27T15:10:37.514Z,25.97
2018-01-27T15:13:05.023Z,27.93
2018-01-27T15:15:32.571Z,26.77
2018-01-27T15:18:00.091Z,27.20
2018-01-27T15:20:27.688Z,26.73
2018-01-27T15:22:55.374Z,29.03
2018-01-27T15:25:22.920Z,28.00
2018-01-27T15:27:50.462Z,26.53
2018-01-27T15:30:18.090Z,26.67
2018-01-27T15:32:45.630Z,29.03
2018-01-27T15:35:13.143Z,28.53
2018-01-27T15:37:40.648Z,28.47
2018-01-27T15:40:08.714Z,27.37
2018-01-27T15:42:36.220Z,28.13
2018-01-27T15:45:03.711Z,30.53
2018-01-27T15:47:31.305Z,29.63
2018-01-27T15:49:58.798Z,29.63
2018-01-27T15:52:26.300Z,29.00
2018-01-27T15:54:55.321Z,31.07
2018-01-27T15:57:23.048Z,30.33
2018-01-27T15:59:50.547Z,29.93
2018-01-27T16:02:18.060Z,32.23
2018-01-27T16:04:45.564Z,30.23
2018-01-27T16:07:13.133Z,30.70
2018-01-27T16:09:41.377Z,31.27
2018-01-27T16:12:08.993Z,31.10
2018-01-27T16:14:46.114Z,30.13
2018-01-27T16:17:13.736Z,31.70
2018-01-27T16:19:41.339Z,31.10
2018-01-27T16:22:08.862Z,30.90
2018-01-27T16:24:36.400Z,31.57
2018-01-27T16:27:03.976Z,31.77
2018-01-27T16:29:31.427Z,30.33
2018-01-27T16:31:59.400Z,30.53
2018-01-27T16:34:28.423Z,33.47
2018-01-27T16:36:56.057Z,31.30
2018-01-27T16:39:23.634Z,34.07
2018-01-27T16:41:51.277Z,33.70
2018-01-27T16:44:18.894Z,33.50
2018-01-27T16:46:46.454Z,32.60
2018-01-27T16:49:14.292Z,34.17
2018-01-27T16:51:41.875Z,31.97
2018-01-27T16:54:09.406Z,32.50
2018-01-27T16:56:36.944Z,33.00
2018-01-27T16:59:04.446Z,33.33
2018-01-27T17:01:32.100Z,31.50
2018-01-27T17:04:09.374Z,31.17
2018-01-27T17:06:36.849Z,34.33
2018-01-27T17:09:04.373Z,33.90
2018-01-27T17:11:32.647Z,32.57
2018-01-27T17:14:00.145Z,31.90
2018-01-27T17:16:27.754Z,33.50
2018-01-27T17:18:55.355Z,31.60
2018-01-27T17:21:23.794Z,32.53
2018-01-27T17:23:51.355Z,31.97
2018-01-27T17:26:19.089Z,32.27
2018-01-27T17:28:46.659Z,31.30
2018-01-27T17:31:14.530Z,32.87
2018-01-27T17:33:42.247Z,32.83
2018-01-27T17:36:10.857Z,31.90
2018-01-27T17:38:39.688Z,33.87
2018-01-27T17:41:07.247Z,33.33
2018-01-27T17:43:34.976Z,30.57
2018-01-27T17:46:02.524Z,31.27
2018-01-27T17:48:30.969Z,32.57
2018-01-27T17:50:58.552Z,31.67
2018-01-27T17:53:26.102Z,33.60
2018-01-27T17:55:53.678Z,33.03
2018-01-27T17:58:21.242Z,32.80
2018-01-27T18:00:48.863Z,34.53
2018-01-27T18:03:16.534Z,34.73
2018-01-27T18:05:44.222Z,34.43
2018-01-27T18:08:11.702Z,35.73
2018-01-27T18:10:39.250Z,32.97
2018-01-27T18:13:06.723Z,34.23
2018-01-27T18:15:35.848Z,33.10
2018-01-27T18:18:04.182Z,33.63
2018-01-27T18:20:32.655Z,33.07
2018-01-27T18:23:00.262Z,33.27
2018-01-27T18:25:27.979Z,34.33
2018-01-27T18:27:55.497Z,33.10
2018-01-27T18:30:23.588Z,33.10
2018-01-27T18:32:51.252Z,32.73
2018-01-27T18:35:19.597Z,33.00
2018-01-27T18:37:47.109Z,32.00
2018-01-27T18:40:15.482Z,31.13
2018-01-27T18:42:43.834Z,32.27
2018-01-27T18:45:11.642Z,32.87
2018-01-27T18:47:39.170Z,33.50
2018-01-27T18:50:06.696Z,33.53
2018-01-27T18:52:34.251Z,32.03
2018-01-27T18:55:01.864Z,31.77
2018-01-27T18:57:29.367Z,32.43
2018-01-27T18:59:56.853Z,29.70
2018-01-27T19:02:24.442Z,31.73
2018-01-27T19:04:52.928Z,30.80
2018-01-27T19:07:20.451Z,30.80
2018-01-27T19:09:47.954Z,32.03
2018-01-27T19:12:15.516Z,29.20
2018-01-27T19:14:44.102Z,29.93
2018-01-27T19:17:11.621Z,30.10
2018-01-27T19:19:39.334Z,28.70
2018-01-27T19:22:07.078Z,28.53
2018-01-27T19:24:34.690Z,27.63
2018-01-27T19:27:04.720Z,27.53
2018-01-27T19:29:32.477Z,28.17
2018-01-27T19:32:00.043Z,28.83
2018-01-27T19:34:28.235Z,28.83
2018-01-27T19:36:55.748Z,27.07
2018-01-27T19:39:23.353Z,26.57
2018-01-27T19:41:51.000Z,26.23
2018-01-27T19:44:18.553Z,27.43
2018-01-27T19:46:46.098Z,26.03
2018-01-27T19:49:14.420Z,27.00
2018-01-27T19:51:42.033Z,26.43
2018-01-27T19:54:12.845Z,23.87
2018-01-27T19:56:40.527Z,25.43
2018-01-27T19:59:08.193Z,24.30
2018-01-27T20:01:35.704Z,24.87
2018-01-27T20:04:04.278Z,25.50
2018-01-27T20:06:31.952Z,25.27
2018-01-27T20:08:59.606Z,22.93
2018-01-27T20:11:27.930Z,23.33
2018-01-27T20:13:55.474Z,22.43
2018-01-27T20:16:22.980Z,22.17
2018-01-27T20:18:50.611Z,21.87
2018-01-27T20:21:18.143Z,21.20
2018-01-27T20:23:46.449Z,20.80
2018-01-27T20:26:14.127Z,22.03
2018-01-27T20:28:42.569Z,20.50
2018-01-27T20:31:10.204Z,20.53
2018-01-27T20:33:47.466Z,19.60
2018-01-27T20:36:15.416Z,19.70
2018-01-27T20:38:42.996Z,18.47
2018-01-27T20:41:10.571Z,19.03
2018-01-27T20:43:38.219Z,20.47
2018-01-27T20:46:05.895Z,19.37
2018-01-27T20:48:33.493Z,20.13
2018-01-27T20:51:01.200Z,18.90
2018-01-27T20:53:28.792Z,18.53
2018-01-27T20:55:56.403Z,18.90
2018-01-27T20:58:24.175Z,18.43
2018-01-27T21:00:52.046Z,18.40
2018-01-27T21:03:19.590Z,18.10
2018-01-27T21:05:47.400Z,17.67
2018-01-27T21:08:15.250Z,17.10
2018-01-27T21:10:43.629Z,17.77
2018-01-27T21:13:11.173Z,17.70
2018-01-27T21:15:38.852Z,18.13
2018-01-27T21:18:06.630Z,16.73
2018-01-27T21:20:34.415Z,17.13
2018-01-27T21:23:02.084Z,18.40
2018-01-27T21:25:30.392Z,16.77
2018-01-27T21:27:57.878Z,17.20
2018-01-27T21:30:26.628Z,16.13
2018-01-27T21:32:54.420Z,17.77
2018-01-27T21:35:22.411Z,17.83
2018-01-27T21:37:50.069Z,18.03
2018-01-27T21:40:17.702Z,18.33
2018-01-27T21:42:45.358Z,17.97
2018-01-27T21:45:13.874Z,16.80
2018-01-27T21:47:42.411Z,17.33
2018-01-27T21:50:10.601Z,16.53
2018-01-27T21:52:38.152Z,16.73
2018-01-27T21:55:05.823Z,17.07
2018-01-27T21:57:33.368Z,16.67
2018-01-27T22:00:01.751Z,16.63
2018-01-27T22:02:29.349Z,17.50
2018-01-27T22:04:56.830Z,16.57
2018-01-27T22:07:24.825Z,16.93
2018-01-27T22:09:52.328Z,16.83
2018-01-27T22:12:20.816Z,15.60
2018-01-27T22:14:48.764Z,17.10
2018-01-27T22:17:16.322Z,16.17
2018-01-27T22:19:44.071Z,16.43
2018-01-27T22:22:11.726Z,16.20
2018-01-27T22:24:53.526Z,15.17
2018-01-27T22:27:21.075Z,15.77
2018-01-27T22:29:48.632Z,15.20
2018-01-27T22:32:17.060Z,14.20
2018-01-27T22:34:44.679Z,15.57
2018-01-27T22:37:12.454Z,13.77
2018-01-27T22:39:41.003Z,14.17
2018-01-27T22:42:08.727Z,14.40
2018-01-27T22:44:46.137Z,13.63
2018-01-27T22:47:14.587Z,14.20
2018-01-27T22:49:42.123Z,13.53
2018-01-27T22:52:09.794Z,13.57
2018-01-27T22:54:46.977Z,12.73
2018-01-27T22:57:14.552Z,13.07
2018-01-27T22:59:42.350Z,13.63
2018-01-27T23:02:09.963Z,13.03
2018-01-27T23:04:38.536Z,12.60
2018-01-27T23:07:06.302Z,13.13
2018-01-27T23:09:33.868Z,12.27
2018-01-27T23:12:01.696Z,12.23
2018-01-27T23:14:29.260Z,12.10
2018-01-27T23:16:56.887Z,12.23
2018-01-27T23:19:24.431Z,10.97
2018-01-27T23:21:52.042Z,12.20
2018-01-27T23:24:19.550Z,11.30
2018-01-27T23:26:47.038Z,11.40
2018-01-27T23:29:14.726Z,11.37
2018-01-27T23:31:42.823Z,11.67
2018-01-27T23:34:29.621Z,11.20
2018-01-27T23:36:57.095Z,12.60
2018-01-27T23:39:26.103Z,12.10
2018-01-27T23:41:53.698Z,12.23
2018-01-27T23:44:21.683Z,11.83
2018-01-27T23:46:49.985Z,12.30
2018-01-27T23:49:17.573Z,12.30
2018-01-27T23:51:45.201Z,11.90
2018-01-27T23:54:12.701Z,11.83
2018-01-27T23:56:40.401Z,11.70
2018-01-27T23:59:07.902Z,11.27
